sensor_id;sensor_type;location;lat;lon;timestamp;temperature;humidity
12374;DHT22;6251;51.762;8.660;2023-12-20T00:08:53;6.90;99.90
12374;DHT22;6251;51.762;8.660;2023-12-20T02:00:38;5.80;99.90
12374;DHT22;6251;51.762;8.660;2023-12-20T02:10:39;5.90;99.90
12374;DHT22;6251;51.762;8.660;2023-12-20T03:52:14;5.50;99.90
12374;DHT22;6251;51.762;8.660;2023-12-20T05:03:17;5.40;99.90
12374;DHT22;6251;51.762;8.660;2023-12-20T05:13:17;5.40;99.90
12374;DHT22;6251;51.762;8.660;2023-12-20T05:23:18;5.40;99.90
12374;DHT22;6251;51.762;8.660;2023-12-20T05:33:18;5.40;99.90
12374;DHT22;6251;51.762;8.660;2023-12-20T05:43:19;5.40;99.90
12374;DHT22;6251;51.762;8.660;2023-12-20T05:53:20;5.40;99.90
12374;DHT22;6251;51.762;8.660;2023-12-20T06:03:20;5.50;99.90
12374;DHT22;6251;51.762;8.660;2023-12-20T06:13:21;5.50;99.90
12374;DHT22;6251;51.762;8.660;2023-12-20T06:23:21;5.40;99.90
12374;DHT22;6251;51.762;8.660;2023-12-20T06:33:22;5.40;99.90
12374;DHT22;6251;51.762;8.660;2023-12-20T06:43:23;5.40;99.90
12374;DHT22;6251;51.762;8.660;2023-12-20T06:53:23;5.40;99.90
12374;DHT22;6251;51.762;8.660;2023-12-20T07:03:24;5.40;99.90
12374;DHT22;6251;51.762;8.660;2023-12-20T07:13:25;5.30;99.90
12374;DHT22;6251;51.762;8.660;2023-12-20T07:23:25;5.40;99.90
12374;DHT22;6251;51.762;8.660;2023-12-20T07:33:27;5.40;99.90
12374;DHT22;6251;51.762;8.660;2023-12-20T07:43:27;5.40;99.90
12374;DHT22;6251;51.762;8.660;2023-12-20T07:53:28;5.30;99.90
12374;DHT22;6251;51.762;8.660;2023-12-20T08:03:28;5.40;99.90
12374;DHT22;6251;51.762;8.660;2023-12-20T08:13:29;5.40;99.90
12374;DHT22;6251;51.762;8.660;2023-12-20T08:23:29;5.40;99.90
12374;DHT22;6251;51.762;8.660;2023-12-20T08:33:30;5.50;99.90
12374;DHT22;6251;51.762;8.660;2023-12-20T08:43:32;5.50;99.90
12374;DHT22;6251;51.762;8.660;2023-12-20T08:53:32;5.50;99.90
12374;DHT22;6251;51.762;8.660;2023-12-20T09:03:34;5.50;99.90
12374;DHT22;6251;51.762;8.660;2023-12-20T09:13:34;5.60;99.90
12374;DHT22;6251;51.762;8.660;2023-12-20T09:23:35;5.60;99.90
12374;DHT22;6251;51.762;8.660;2023-12-20T09:33:37;5.80;99.90
12374;DHT22;6251;51.762;8.660;2023-12-20T09:43:38;5.70;99.90
12374;DHT22;6251;51.762;8.660;2023-12-20T09:53:40;5.80;99.90
12374;DHT22;6251;51.762;8.660;2023-12-20T10:03:41;5.80;99.90
12374;DHT22;6251;51.762;8.660;2023-12-20T10:13:43;5.90;99.90
12374;DHT22;6251;51.762;8.660;2023-12-20T10:23:43;6.00;99.90
12374;DHT22;6251;51.762;8.660;2023-12-20T10:33:44;6.00;99.90
12374;DHT22;6251;51.762;8.660;2023-12-20T10:43:45;6.00;99.90
12374;DHT22;6251;51.762;8.660;2023-12-20T10:53:47;6.20;99.90
12374;DHT22;6251;51.762;8.660;2023-12-20T11:03:53;6.10;99.90
12374;DHT22;6251;51.762;8.660;2023-12-20T11:14:03;6.00;99.90
12374;DHT22;6251;51.762;8.660;2023-12-20T11:24:05;6.00;99.90
12374;DHT22;6251;51.762;8.660;2023-12-20T11:34:17;6.00;99.90
12374;DHT22;6251;51.762;8.660;2023-12-20T11:44:18;6.10;99.90
12374;DHT22;6251;51.762;8.660;2023-12-20T11:54:18;6.00;99.90
12374;DHT22;6251;51.762;8.660;2023-12-20T12:04:19;6.00;99.90
12374;DHT22;6251;51.762;8.660;2023-12-20T12:14:20;6.10;99.90
12374;DHT22;6251;51.762;8.660;2023-12-20T12:24:21;6.10;99.90
12374;DHT22;6251;51.762;8.660;2023-12-20T12:34:22;6.40;99.90
12374;DHT22;6251;51.762;8.660;2023-12-20T12:44:23;6.50;99.90
12374;DHT22;6251;51.762;8.660;2023-12-20T12:54:25;6.60;99.90
12374;DHT22;6251;51.762;8.660;2023-12-20T13:04:26;6.80;99.90
12374;DHT22;6251;51.762;8.660;2023-12-20T13:14:26;6.80;99.90
12374;DHT22;6251;51.762;8.660;2023-12-20T13:24:27;6.80;99.90
12374;DHT22;6251;51.762;8.660;2023-12-20T13:34:27;6.80;99.90
12374;DHT22;6251;51.762;8.660;2023-12-20T13:44:28;6.90;99.90
12374;DHT22;6251;51.762;8.660;2023-12-20T13:54:29;6.90;99.90
12374;DHT22;6251;51.762;8.660;2023-12-20T14:04:29;6.90;99.90
12374;DHT22;6251;51.762;8.660;2023-12-20T14:14:34;6.80;99.90
12374;DHT22;6251;51.762;8.660;2023-12-20T14:24:37;6.70;99.90
12374;DHT22;6251;51.762;8.660;2023-12-20T14:34:38;6.70;99.90
12374;DHT22;6251;51.762;8.660;2023-12-20T14:44:40;6.60;99.90
12374;DHT22;6251;51.762;8.660;2023-12-20T14:54:41;6.50;99.90
12374;DHT22;6251;51.762;8.660;2023-12-20T15:04:43;6.50;99.90
12374;DHT22;6251;51.762;8.660;2023-12-20T15:14:44;6.40;99.90
12374;DHT22;6251;51.762;8.660;2023-12-20T15:24:45;6.40;99.90
12374;DHT22;6251;51.762;8.660;2023-12-20T15:34:46;6.40;99.90
12374;DHT22;6251;51.762;8.660;2023-12-20T15:44:47;6.50;99.90
12374;DHT22;6251;51.762;8.660;2023-12-20T15:54:48;6.50;99.90
12374;DHT22;6251;51.762;8.660;2023-12-20T16:04:48;6.40;99.90
12374;DHT22;6251;51.762;8.660;2023-12-20T16:14:49;6.40;99.90
12374;DHT22;6251;51.762;8.660;2023-12-20T16:24:49;6.40;99.90
12374;DHT22;6251;51.762;8.660;2023-12-20T16:34:50;6.40;99.90
12374;DHT22;6251;51.762;8.660;2023-12-20T16:44:51;6.40;99.90
12374;DHT22;6251;51.762;8.660;2023-12-20T16:54:52;6.50;99.90
12374;DHT22;6251;51.762;8.660;2023-12-20T17:04:52;6.40;99.90
12374;DHT22;6251;51.762;8.660;2023-12-20T17:14:53;6.40;99.90
12374;DHT22;6251;51.762;8.660;2023-12-20T17:24:54;6.40;99.90
12374;DHT22;6251;51.762;8.660;2023-12-20T17:34:54;6.40;99.90
12374;DHT22;6251;51.762;8.660;2023-12-20T17:44:55;6.40;99.90
12374;DHT22;6251;51.762;8.660;2023-12-20T17:54:55;6.40;99.90
12374;DHT22;6251;51.762;8.660;2023-12-20T18:04:56;6.30;99.90
12374;DHT22;6251;51.762;8.660;2023-12-20T18:14:57;6.30;99.90
12374;DHT22;6251;51.762;8.660;2023-12-20T18:24:59;6.30;99.90
12374;DHT22;6251;51.762;8.660;2023-12-20T18:35:00;6.30;99.90
12374;DHT22;6251;51.762;8.660;2023-12-20T18:45:00;6.30;99.90
12374;DHT22;6251;51.762;8.660;2023-12-20T18:55:04;6.30;99.90
12374;DHT22;6251;51.762;8.660;2023-12-20T19:05:05;6.30;99.90
12374;DHT22;6251;51.762;8.660;2023-12-20T19:15:06;6.40;99.90
12374;DHT22;6251;51.762;8.660;2023-12-20T19:25:08;6.40;99.90
12374;DHT22;6251;51.762;8.660;2023-12-20T19:35:09;6.40;99.90
12374;DHT22;6251;51.762;8.660;2023-12-20T19:45:10;6.40;99.90
12374;DHT22;6251;51.762;8.660;2023-12-20T19:55:12;6.40;99.90
12374;DHT22;6251;51.762;8.660;2023-12-20T20:05:12;6.40;99.90
12374;DHT22;6251;51.762;8.660;2023-12-20T20:15:13;6.50;99.90
12374;DHT22;6251;51.762;8.660;2023-12-20T20:25:14;6.50;99.90
12374;DHT22;6251;51.762;8.660;2023-12-20T20:35:15;6.50;99.90
12374;DHT22;6251;51.762;8.660;2023-12-20T20:45:15;6.50;99.90
12374;DHT22;6251;51.762;8.660;2023-12-20T20:55:17;6.60;99.90
12374;DHT22;6251;51.762;8.660;2023-12-20T21:05:18;6.60;99.90
12374;DHT22;6251;51.762;8.660;2023-12-20T21:15:18;6.60;99.90
12374;DHT22;6251;51.762;8.660;2023-12-20T21:25:19;6.70;99.90
12374;DHT22;6251;51.762;8.660;2023-12-20T21:35:20;6.70;99.90
12374;DHT22;6251;51.762;8.660;2023-12-20T21:45:21;6.80;99.90
12374;DHT22;6251;51.762;8.660;2023-12-20T21:55:22;6.90;99.90
